Flight Track Log - Related Links

Times and Time Zones

All times are in EDT time to prevent confusion due to time zone crossing. See the N99PN flight status page for this flight to view local times or setup timezone preferences in your user account.

Time Position Orientation Groundspeed Altitude Reporting Facility
EDT Latitude Longitude Course Direction KTS MPH feet Rate Location/Type
Sun 12:55:53 PM 28.5500 -81.3167 41° Northeast 101 116 500  Level Orlando TRACON
Sun 12:56:29 PM 28.5667 -81.3000 41° Northeast 117 135 1,200 813 Climbing Orlando TRACON
Sun 12:57:29 PM 28.5833 -81.2667 60° Northeast 117 135 1,800 650 Climbing Orlando TRACON
Sun 12:58:29 PM 28.5833 -81.2333 90° East 130 150 2,500 600 Climbing Orlando TRACON
Sun 12:59:29 PM 28.5833 -81.1833 90° East 132 152 3,000 397 Climbing Orlando TRACON
Sun 01:00:30 PM 28.5833 -81.1500 90° East 141 162 3,300 446 Climbing Orlando TRACON
Sun 01:01:30 PM 28.5500 -81.1167 139° Southeast 139 160 3,900 650 Climbing Orlando TRACON
Sun 01:02:30 PM 28.5167 -81.1167 180° South 131 151 4,600 650 Climbing Orlando TRACON
Sun 01:03:30 PM 28.4833 -81.0833 139° Southeast 137 158 5,200 550 Climbing Orlando TRACON
Sun 01:04:30 PM 28.4500 -81.0667 156° South 144 166 5,700 553 Climbing Orlando TRACON
Sun 01:06:02 PM 28.4142 -81.0261 135° Southeast 140 161 6,600 584 Climbing Miami Center
Sun 01:07:04 PM 28.3894 -80.9919 129° Southeast 140 161 7,200 581 Climbing Miami Center
Sun 01:08:06 PM 28.3644 -80.9558 128° Southeast 142 163 7,800 726 Climbing Miami Center
Sun 01:09:08 PM 28.3336 -80.9144 130° Southeast 142 163 8,700 720 Climbing Miami Center
Sun 01:10:11 PM 28.3081 -80.8814 131° Southeast 141 162 9,300 576 Climbing Miami Center
Sun 01:11:13 PM 28.2833 -80.8461 129° Southeast 141 162 9,900 581 Climbing Miami Center
Sun 01:12:15 PM 28.2644 -80.8072 119° Southeast 141 162 10,500 532 Climbing Miami Center
Sun 01:13:17 PM 28.2447 -80.7683 120° Southeast 141 162 11,000 528 Climbing Miami Center
Sun 01:14:20 PM 28.2225 -80.7278 122° Southeast 146 168 11,600 528 Climbing Miami Center
Sun 01:15:22 PM 28.1972 -80.6769 119° Southeast 152 175 12,100 242 Climbing Miami Center
Sun 01:16:24 PM 28.1744 -80.6292 118° Southeast 167 192 12,100  Level Miami Center
Sun 01:17:26 PM 28.1511 -80.5800 118° Southeast 174 200 12,100  Level Miami Center
Sun 01:18:29 PM 28.1264 -80.5300 119° Southeast 180 207 12,100  Level Miami Center
Sun 01:19:31 PM 28.1011 -80.4797 120° Southeast 181 208 12,100  Level Miami Center
Sun 01:20:33 PM 28.0761 -80.4275 118° Southeast 185 213 12,100  Level Miami Center
Sun 01:21:35 PM 28.0461 -80.3669 119° Southeast 185 213 12,100  Level Miami Center
Sun 01:22:38 PM 28.0214 -80.3158 119° Southeast 185 213 12,100  Level Miami Center
Sun 01:23:40 PM 27.9986 -80.2628 116° Southeast 186 214 12,100  Level Miami Center
Sun 01:24:42 PM 27.9758 -80.2111 117° Southeast 185 213 12,100  Level Miami Center
Sun 01:25:44 PM 27.9517 -80.1578 117° Southeast 187 215 12,100  Level Miami Center
Sun 01:26:47 PM 27.9289 -80.1053 116° Southeast 187 215 12,100  Level Miami Center
Sun 01:27:49 PM 27.9028 -80.0406 115° Southeast 188 216 12,100  Level Miami Center
Sun 01:28:51 PM 27.8819 -79.9875 114° Southeast 188 216 12,100  Level Miami Center
Sun 01:29:53 PM 27.8592 -79.9319 115° Southeast 186 214 12,100 48 Level Miami Center
Sun 01:30:56 PM 27.8356 -79.8758 115° Southeast 187 215 12,200  Climbing Miami Center
Sun 01:31:58 PM 27.8125 -79.8197 115° Southeast 188 216 12,100 -48 Descending Miami Center
Sun 01:33:00 PM 27.7886 -79.7628 115° Southeast 189 217 12,100  Level Miami Center
Sun 01:34:02 PM 27.7653 -79.7078 116° Southeast 189 217 12,100 -96 Level Miami Center
Sun 01:35:05 PM 27.7392 -79.6492 117° Southeast 196 226 11,900 -144 Descending Miami Center
Sun 01:36:07 PM 27.7133 -79.5917 117° Southeast 196 226 11,800 -97 Descending Miami Center
Sun 01:37:09 PM 27.6883 -79.5400 119° Southeast 195 224 11,700 -97 Descending Miami Center
Sun 01:38:11 PM 27.6636 -79.4844 117° Southeast 193 222 11,600 -48 Descending Miami Center
Sun 01:39:14 PM 27.6361 -79.4300 120° Southeast 191 220 11,600 48 Level Miami Center
Sun 01:40:16 PM 27.6111 -79.3761 118° Southeast 190 219 11,700 48 Climbing Miami Center
Sun 01:41:18 PM 27.5850 -79.3239 119° Southeast 186 214 11,700  Level Miami Center
Sun 01:42:20 PM 27.5600 -79.2703 118° Southeast 184 212 11,700  Level Miami Center
Sun 01:43:23 PM 27.5336 -79.2156 119° Southeast 189 217 11,700  Level Miami Center
Sun 01:44:25 PM 27.5064 -79.1617 120° Southeast 188 216 11,700  Level Miami Center
Sun 01:45:27 PM 27.4800 -79.1083 119° Southeast 188 216 11,700  Level Miami Center
Sun 01:46:30 PM 27.4550 -79.0586 120° Southeast 187 215 11,700  Level Miami Center
Sun 01:47:32 PM 27.4258 -79.0044 121° Southeast 191 220 11,700 -48 Level Miami Center
Sun 01:48:34 PM 27.3986 -78.9519 120° Southeast 188 216 11,600  Descending Miami Center
Sun 01:49:36 PM 27.3717 -78.8989 120° Southeast 189 217 11,700  Climbing Miami Center
Sun 01:50:39 PM 27.3431 -78.8469 122° Southeast 187 215 11,600 -48 Descending Miami Center
Sun 01:51:41 PM 27.3158 -78.7944 120° Southeast 187 215 11,600  Level Miami Center
Sun 01:52:43 PM 27.2861 -78.7422 123° Southeast 188 216 11,600  Level Miami Center
Sun 01:53:45 PM 27.2586 -78.6906 121° Southeast 187 215 11,600  Level Miami Center
Sun 01:54:48 PM 27.2361 -78.6489 121° Southeast 184 212 11,600  Level Miami Center
Sun 01:55:50 PM 27.2036 -78.5903 122° Southeast 185 213 11,600  Level Miami Center
Sun 01:56:52 PM 27.1761 -78.5392 121° Southeast 185 213 11,600 48 Level Miami Center
Sun 01:57:54 PM 27.1508 -78.4917 121° Southeast 182 209 11,700  Climbing Miami Center
Sun 01:58:57 PM 27.1219 -78.4411 123° Southeast 182 209 11,600 -48 Descending Miami Center
Sun 01:59:59 PM 27.0969 -78.3939 121° Southeast 182 209 11,600 -339 Level Miami Center
Sun 02:01:01 PM 27.0592 -78.3300 124° Southeast 196 226 10,900 -528 Descending Miami Center
Sun 02:02:04 PM 27.0267 -78.2778 125° Southeast 200 230 10,500 -336 Descending Miami Center
Sun 02:03:06 PM 26.9950 -78.2269 125° Southeast 200 230 10,200 -387 Descending Miami Center
Sun 02:04:08 PM 26.9597 -78.1725 126° Southeast 199 229 9,700 -435 Descending Miami Center
Sun 02:05:10 PM 26.9269 -78.1244 127° Southeast 199 229 9,300 -336 Descending Miami Center
Sun 02:06:13 PM 26.9014 -78.0675 117° Southeast 197 227 9,000 -432 Descending Miami Center
Sun 02:07:15 PM 26.8689 -78.0133 124° Southeast 197 227 8,400 1,210 Descending Miami Center
Sun 02:08:17 PM 26.8367 -77.9583 123° Southeast 198 228 11,500 -726 Climbing Miami Center
Sun 02:09:19 PM 26.8067 -77.9081 124° Southeast 198 228 6,900  Descending Miami Center
Sun 02:10:22 PM 26.7775 -77.8550 122° Southeast 198 228 11,500 4,381 Climbing Miami Center

Login

Don't have an account? Register now (free) for customized features, flight alerts, and more!